createdAt,value
2019-01-21T00:02:18.000Z,79.90
2019-01-21T00:04:46.402Z,79.90
2019-01-21T00:07:14.823Z,79.90
2019-01-21T00:09:43.251Z,80.00
2019-01-21T00:12:11.707Z,80.00
2019-01-21T00:14:40.130Z,80.00
2019-01-21T00:17:08.566Z,80.00
2019-01-21T00:19:36.980Z,80.00
2019-01-21T00:22:05.855Z,80.00
2019-01-21T00:24:34.286Z,80.00
2019-01-21T00:27:02.697Z,80.00
2019-01-21T00:29:31.110Z,80.10
2019-01-21T00:31:59.556Z,80.20
2019-01-21T00:34:28.000Z,80.20
2019-01-21T00:37:03.307Z,80.30
2019-01-21T00:39:26.596Z,80.20
2019-01-21T00:41:55.009Z,80.20
2019-01-21T00:44:23.455Z,80.20
2019-01-21T00:46:51.871Z,80.20
2019-01-21T00:49:20.320Z,80.40
2019-01-21T00:51:48.729Z,80.20
2019-01-21T00:54:17.140Z,80.30
2019-01-21T00:56:46.554Z,80.30
2019-01-21T00:59:14.968Z,81.00
2019-01-21T01:01:43.380Z,80.30
2019-01-21T01:04:11.820Z,80.30
2019-01-21T01:06:40.261Z,80.30
2019-01-21T01:09:08.857Z,80.30
2019-01-21T01:11:37.289Z,80.40
2019-01-21T01:14:05.944Z,80.40
2019-01-21T01:16:34.377Z,80.40
2019-01-21T01:19:02.820Z,80.40
2019-01-21T01:21:31.257Z,80.50
2019-01-21T01:23:59.675Z,80.40
2019-01-21T01:26:28.105Z,80.40
2019-01-21T01:28:56.537Z,80.50
2019-01-21T01:31:24.981Z,80.50
2019-01-21T01:33:53.409Z,80.40
2019-01-21T01:36:21.845Z,80.40
2019-01-21T01:38:50.282Z,79.70
2019-01-21T01:41:18.790Z,80.50
2019-01-21T01:43:47.215Z,80.50
2019-01-21T01:46:15.737Z,80.40
2019-01-21T01:48:44.153Z,80.60
2019-01-21T01:51:12.947Z,80.60
2019-01-21T01:53:41.395Z,80.60
2019-01-21T01:56:09.808Z,80.60
2019-01-21T01:58:38.337Z,80.60
2019-01-21T02:01:06.746Z,80.60
2019-01-21T02:03:35.161Z,80.60
2019-01-21T02:06:03.605Z,80.50
2019-01-21T02:08:32.101Z,80.60
2019-01-21T02:11:00.536Z,80.70
2019-01-21T02:13:28.951Z,80.70
2019-01-21T02:15:57.380Z,80.70
2019-01-21T02:18:26.183Z,80.70
2019-01-21T02:20:55.868Z,80.70
2019-01-21T02:23:26.756Z,80.70
2019-01-21T02:25:58.440Z,80.70
2019-01-21T02:28:35.449Z,80.70
2019-01-21T02:31:09.852Z,80.60
2019-01-21T02:34:00.431Z,80.50
2019-01-21T02:36:43.565Z,80.70
2019-01-21T02:39:29.653Z,80.80
2019-01-21T02:42:01.166Z,80.70
2019-01-21T02:44:33.044Z,80.70
2019-01-21T02:47:13.361Z,80.70
2019-01-21T02:49:53.761Z,80.70
2019-01-21T02:52:40.401Z,80.80
2019-01-21T02:55:14.690Z,80.60
2019-01-21T02:57:54.633Z,80.20
2019-01-21T03:00:28.951Z,80.80
2019-01-21T03:03:00.437Z,80.70
2019-01-21T03:05:37.485Z,80.80
2019-01-21T03:08:25.398Z,80.30
2019-01-21T03:11:11.671Z,80.60
2019-01-21T03:13:55.031Z,80.90
2019-01-21T03:16:44.161Z,80.20
2019-01-21T03:19:18.490Z,80.90
2019-01-21T03:22:09.377Z,80.80
2019-01-21T03:24:57.157Z,80.90
2019-01-21T03:28:01.710Z,80.90
2019-01-21T03:30:36.008Z,81.10
2019-01-21T03:33:31.437Z,81.20
2019-01-21T03:36:23.719Z,81.20
2019-01-21T03:39:06.688Z,81.30
2019-01-21T03:41:46.856Z,81.40
2019-01-21T03:44:26.947Z,81.20
2019-01-21T03:46:58.458Z,81.40
2019-01-21T03:49:35.730Z,81.50
2019-01-21T03:52:27.807Z,81.50
2019-01-21T03:54:56.998Z,81.40
2019-01-21T03:57:34.238Z,81.50
2019-01-21T04:00:20.637Z,81.50
2019-01-21T04:03:11.180Z,81.50
2019-01-21T04:05:45.348Z,81.50
2019-01-21T04:08:31.786Z,81.50
2019-01-21T04:11:20.420Z,81.50
2019-01-21T04:14:03.552Z,81.40
2019-01-21T04:16:43.720Z,81.40
2019-01-21T04:19:20.911Z,81.50
2019-01-21T04:22:16.243Z,81.50
2019-01-21T04:24:56.607Z,81.50
2019-01-21T04:27:42.907Z,81.60
2019-01-21T04:30:20.264Z,81.60
2019-01-21T04:32:51.773Z,81.50
2019-01-21T04:35:34.904Z,81.60
2019-01-21T04:38:09.351Z,81.50
2019-01-21T04:40:55.649Z,81.60
2019-01-21T04:43:41.747Z,81.60
2019-01-21T04:46:24.957Z,81.50
2019-01-21T04:49:05.551Z,81.50
2019-01-21T04:51:48.944Z,81.60
2019-01-21T04:54:53.533Z,81.60
2019-01-21T04:57:27.606Z,81.60
2019-01-21T05:00:13.702Z,81.50
2019-01-21T05:03:15.685Z,81.50
2019-01-21T05:06:07.809Z,81.60
2019-01-21T05:09:04.241Z,81.60
2019-01-21T05:12:05.372Z,81.60
2019-01-21T05:14:39.535Z,81.60
2019-01-21T05:17:45.309Z,81.60
2019-01-21T05:20:34.456Z,81.60
2019-01-21T05:23:08.636Z,81.60
2019-01-21T05:25:45.814Z,81.70
2019-01-21T05:28:37.672Z,81.70
2019-01-21T05:31:14.541Z,81.70
2019-01-21T05:34:02.196Z,81.70
2019-01-21T05:36:39.457Z,81.60
2019-01-21T05:39:11.342Z,81.60
2019-01-21T05:41:59.111Z,81.90
2019-01-21T05:44:53.065Z,81.80
2019-01-21T05:47:55.729Z,81.80
2019-01-21T05:50:27.249Z,81.80
2019-01-21T05:53:14.822Z,81.80
2019-01-21T05:55:58.038Z,81.80
2019-01-21T05:58:52.804Z,81.80
2019-01-21T06:01:33.252Z,81.90
2019-01-21T06:04:22.717Z,81.90
2019-01-21T06:06:56.947Z,81.90
2019-01-21T06:09:46.179Z,81.90
2019-01-21T06:12:47.259Z,81.90
2019-01-21T06:15:40.839Z,81.90
2019-01-21T06:18:20.983Z,81.90
2019-01-21T06:21:19.851Z,81.90
2019-01-21T06:24:13.569Z,81.80
2019-01-21T06:26:45.100Z,81.90
2019-01-21T06:29:31.432Z,81.80
2019-01-21T06:32:11.613Z,81.80
2019-01-21T06:35:07.261Z,81.90
2019-01-21T06:37:44.320Z,81.90
2019-01-21T06:40:30.632Z,81.90
2019-01-21T06:43:07.909Z,81.60
2019-01-21T06:46:00.494Z,80.00
2019-01-21T06:48:49.261Z,79.70
2019-01-21T06:51:35.455Z,79.80
2019-01-21T06:54:15.604Z,80.20
2019-01-21T06:57:05.045Z,80.30
2019-01-21T06:59:48.202Z,80.60
2019-01-21T07:02:47.993Z,80.60
2019-01-21T07:05:35.773Z,80.70
2019-01-21T07:08:34.336Z,80.80
2019-01-21T07:11:28.801Z,80.70
2019-01-21T07:14:15.172Z,80.80
2019-01-21T07:16:49.405Z,80.80
2019-01-21T07:19:35.978Z,80.80
2019-01-21T07:22:25.094Z,80.80
2019-01-21T07:25:07.714Z,80.90
2019-01-21T07:27:54.021Z,80.90
2019-01-21T07:30:36.852Z,81.80
2019-01-21T07:33:10.916Z,81.10
2019-01-21T07:35:51.369Z,81.10
2019-01-21T07:38:34.492Z,81.10
2019-01-21T07:41:11.193Z,81.10
2019-01-21T07:43:48.309Z,81.90
2019-01-21T07:46:22.244Z,81.20
2019-01-21T07:48:53.757Z,81.10
2019-01-21T07:51:42.936Z,81.10
2019-01-21T07:54:35.371Z,81.00
2019-01-21T07:57:15.805Z,81.10
2019-01-21T08:00:08.336Z,81.10
2019-01-21T08:02:45.480Z,81.10
2019-01-21T08:05:25.962Z,81.00
2019-01-21T08:08:03.233Z,81.00
2019-01-21T08:10:49.713Z,81.00
2019-01-21T08:13:29.837Z,80.90
2019-01-21T08:16:17.570Z,80.90
2019-01-21T08:19:00.952Z,80.90
2019-01-21T08:21:40.959Z,80.90
2019-01-21T08:24:26.630Z,80.90
2019-01-21T08:27:06.667Z,80.80
2019-01-21T08:29:40.836Z,80.80
2019-01-21T08:32:27.178Z,80.70
2019-01-21T08:34:58.721Z,80.80
2019-01-21T08:37:46.529Z,80.80
2019-01-21T08:40:23.762Z,80.60
2019-01-21T08:43:00.849Z,80.70
2019-01-21T08:45:32.333Z,80.60
2019-01-21T08:48:18.866Z,80.30
2019-01-21T08:50:53.297Z,80.20
2019-01-21T08:53:36.587Z,80.30
2019-01-21T08:56:29.186Z,80.40
2019-01-21T08:59:12.480Z,80.40
2019-01-21T09:01:44.025Z,80.30
2019-01-21T09:04:18.393Z,80.40
2019-01-21T09:07:18.117Z,80.30
2019-01-21T09:10:14.923Z,80.20
2019-01-21T09:12:58.510Z,80.40
2019-01-21T09:15:30.025Z,80.30
2019-01-21T09:18:03.157Z,80.40
2019-01-21T09:20:40.372Z,80.50
2019-01-21T09:23:14.890Z,80.40
2019-01-21T09:25:58.392Z,80.30
2019-01-21T09:28:47.845Z,79.90
2019-01-21T09:31:24.972Z,80.10
2019-01-21T09:33:56.499Z,80.10
2019-01-21T09:36:42.589Z,80.00
2019-01-21T09:39:29.054Z,79.70
2019-01-21T09:42:12.474Z,80.30
2019-01-21T09:45:03.358Z,79.40
2019-01-21T09:47:30.710Z,80.60
2019-01-21T09:49:59.396Z,80.70
2019-01-21T09:52:28.371Z,80.70
2019-01-21T09:54:57.621Z,80.80
2019-01-21T09:57:26.601Z,80.80
2019-01-21T09:59:55.095Z,80.80
2019-01-21T10:02:26.135Z,80.90
2019-01-21T10:04:57.634Z,81.10
2019-01-21T10:07:31.175Z,81.10
2019-01-21T10:10:02.669Z,81.10
2019-01-21T10:12:36.854Z,81.20
2019-01-21T10:15:13.838Z,81.20
2019-01-21T10:17:48.191Z,81.00
2019-01-21T10:20:34.539Z,81.10
2019-01-21T10:23:38.907Z,80.70
2019-01-21T10:26:31.383Z,80.90
2019-01-21T10:29:15.005Z,81.10
2019-01-21T10:31:52.431Z,81.00
2019-01-21T10:34:41.872Z,81.10
2019-01-21T10:37:29.886Z,80.90
2019-01-21T10:40:07.834Z,81.00
2019-01-21T10:42:55.623Z,80.80
2019-01-21T10:45:39.042Z,80.50
2019-01-21T10:48:28.400Z,80.00
2019-01-21T10:51:11.833Z,79.20
2019-01-21T10:53:45.867Z,80.50
2019-01-21T10:56:23.076Z,80.20
2019-01-21T10:59:03.640Z,80.80
2019-01-21T11:01:54.608Z,80.70
2019-01-21T11:04:28.960Z,80.80
2019-01-21T11:07:26.086Z,80.80
2019-01-21T11:09:57.580Z,80.70
2019-01-21T11:12:40.921Z,80.60
2019-01-21T11:15:18.139Z,80.30
2019-01-21T11:17:49.636Z,80.30
2019-01-21T11:20:39.825Z,80.10
2019-01-21T11:23:25.928Z,79.90
2019-01-21T11:26:16.451Z,79.70
2019-01-21T11:28:56.520Z,79.60
2019-01-21T11:31:36.896Z,79.80
2019-01-21T11:34:28.704Z,79.60
2019-01-21T11:37:08.603Z,78.80
2019-01-21T11:39:51.806Z,79.40
2019-01-21T11:42:25.776Z,78.50
2019-01-21T11:45:18.596Z,79.30
2019-01-21T11:47:56.664Z,79.40
2019-01-21T11:50:56.517Z,79.40
2019-01-21T11:53:28.016Z,78.00
2019-01-21T11:56:02.189Z,79.10
2019-01-21T11:58:36.356Z,78.00
2019-01-21T12:01:19.629Z,76.30
2019-01-21T12:04:03.152Z,78.50
2019-01-21T12:06:34.648Z,77.10
2019-01-21T12:09:14.777Z,78.40
2019-01-21T12:11:46.293Z,78.10
2019-01-21T12:14:29.359Z,79.30
2019-01-21T12:17:06.335Z,78.40
2019-01-21T12:19:41.600Z,78.90
2019-01-21T12:22:45.768Z,78.50
2019-01-21T12:25:17.320Z,78.80
2019-01-21T12:27:51.570Z,77.60
2019-01-21T12:30:28.641Z,78.50
2019-01-21T12:33:00.136Z,78.50
2019-01-21T12:35:52.568Z,77.40
2019-01-21T12:38:38.899Z,77.00
2019-01-21T12:41:21.734Z,77.00
2019-01-21T12:44:11.725Z,77.10
2019-01-21T12:46:45.950Z,76.90
2019-01-21T12:49:42.610Z,76.20
2019-01-21T12:52:19.799Z,75.90
2019-01-21T12:55:02.872Z,75.00
2019-01-21T12:57:52.117Z,75.50
2019-01-21T13:00:40.648Z,74.80
2019-01-21T13:03:28.776Z,75.60
2019-01-21T13:06:00.313Z,75.20
2019-01-21T13:08:34.596Z,74.40
2019-01-21T13:11:11.916Z,74.90
2019-01-21T13:13:47.466Z,74.80
2019-01-21T13:16:33.670Z,75.80
2019-01-21T13:19:11.431Z,75.80
2019-01-21T13:21:59.203Z,75.20
2019-01-21T13:24:47.188Z,75.20
2019-01-21T13:27:24.597Z,75.30
2019-01-21T13:29:56.104Z,75.40
2019-01-21T13:32:41.789Z,75.50
2019-01-21T13:35:21.478Z,75.40
2019-01-21T13:38:04.671Z,75.50
2019-01-21T13:40:55.360Z,75.70
2019-01-21T13:43:26.875Z,75.60
2019-01-21T13:46:13.177Z,75.60
2019-01-21T13:48:47.192Z,75.30
2019-01-21T13:51:36.708Z,75.60
2019-01-21T13:54:17.445Z,75.50
2019-01-21T13:56:48.960Z,75.30
2019-01-21T13:59:29.374Z,75.40
2019-01-21T14:02:03.607Z,75.70
2019-01-21T14:04:53.013Z,75.80
2019-01-21T14:07:24.530Z,75.70
2019-01-21T14:10:01.588Z,75.60
2019-01-21T14:12:38.586Z,75.80
2019-01-21T14:15:19.011Z,75.80
2019-01-21T14:18:02.285Z,75.80
2019-01-21T14:20:43.605Z,75.70
2019-01-21T14:23:25.446Z,75.80
2019-01-21T14:26:03.050Z,74.30
2019-01-21T14:28:51.783Z,75.30
2019-01-21T14:31:29.155Z,75.80
2019-01-21T14:34:08.991Z,75.90
2019-01-21T14:36:55.428Z,75.80
2019-01-21T14:39:33.782Z,75.90
2019-01-21T14:42:18.997Z,75.00
2019-01-21T14:44:56.228Z,74.60
2019-01-21T14:47:45.372Z,74.30
2019-01-21T14:50:28.765Z,74.20
2019-01-21T14:53:24.154Z,74.30
2019-01-21T14:56:15.249Z,74.20
2019-01-21T14:59:01.927Z,74.60
2019-01-21T15:01:33.925Z,74.70
2019-01-21T15:04:18.059Z,74.80
2019-01-21T15:07:12.487Z,74.80
2019-01-21T15:09:49.859Z,75.00
2019-01-21T15:12:36.244Z,75.10
2019-01-21T15:15:24.582Z,75.30
2019-01-21T15:18:17.226Z,75.40
2019-01-21T15:20:48.979Z,75.50
2019-01-21T15:23:29.371Z,75.70
2019-01-21T15:26:07.177Z,75.70
2019-01-21T15:28:41.569Z,75.80
2019-01-21T15:31:25.515Z,75.90
2019-01-21T15:34:22.510Z,76.60
2019-01-21T15:37:06.785Z,76.00
2019-01-21T15:39:50.138Z,76.00
2019-01-21T15:42:31.523Z,76.00
2019-01-21T15:45:31.788Z,76.10
2019-01-21T15:48:12.371Z,76.10
2019-01-21T15:50:46.701Z,74.80
2019-01-21T15:53:34.506Z,74.90
2019-01-21T15:56:21.213Z,74.40
2019-01-21T15:58:57.319Z,73.60
2019-01-21T16:01:31.353Z,74.00
2019-01-21T16:04:05.573Z,74.60
2019-01-21T16:06:37.542Z,74.70
2019-01-21T16:09:24.085Z,74.90
2019-01-21T16:11:58.720Z,75.00
2019-01-21T16:14:30.554Z,75.00
2019-01-21T16:17:02.869Z,75.00
2019-01-21T16:19:34.351Z,75.10
2019-01-21T16:22:08.817Z,75.00
2019-01-21T16:24:56.113Z,75.20
2019-01-21T16:27:33.500Z,75.30
2019-01-21T16:30:20.713Z,75.40
2019-01-21T16:32:52.496Z,75.50
2019-01-21T16:35:24.509Z,75.60
2019-01-21T16:37:59.742Z,75.60
2019-01-21T16:40:34.601Z,75.70
2019-01-21T16:43:03.118Z,75.70
2019-01-21T16:45:31.553Z,75.80
2019-01-21T16:47:59.994Z,75.80
2019-01-21T16:50:28.469Z,75.80
2019-01-21T16:52:56.910Z,75.60
2019-01-21T16:55:27.532Z,76.00
2019-01-21T16:57:56.112Z,76.00
2019-01-21T17:00:24.603Z,76.00
2019-01-21T17:02:53.079Z,76.00
2019-01-21T17:05:21.527Z,75.80
2019-01-21T17:07:52.189Z,76.00
2019-01-21T17:10:20.964Z,75.90
2019-01-21T17:12:49.373Z,76.10
2019-01-21T17:15:17.893Z,76.20
2019-01-21T17:17:46.324Z,76.30
2019-01-21T17:20:22.492Z,76.30
2019-01-21T17:22:50.917Z,76.40
2019-01-21T17:25:20.119Z,76.30
2019-01-21T17:27:48.530Z,76.40
2019-01-21T17:30:17.907Z,76.40
2019-01-21T17:32:46.323Z,76.40
2019-01-21T17:35:15.218Z,76.50
2019-01-21T17:37:43.642Z,76.40
2019-01-21T17:40:15.449Z,76.50
2019-01-21T17:42:43.892Z,76.50
2019-01-21T17:45:15.522Z,76.60
2019-01-21T17:47:44.038Z,76.60
2019-01-21T17:50:14.802Z,76.60
2019-01-21T17:52:43.333Z,76.70
2019-01-21T17:55:12.794Z,76.70
2019-01-21T17:57:41.226Z,76.70
2019-01-21T18:00:17.083Z,76.80
2019-01-21T18:02:45.629Z,75.40
2019-01-21T18:05:16.441Z,74.60
2019-01-21T18:07:45.049Z,75.40
2019-01-21T18:10:15.918Z,75.50
2019-01-21T18:12:44.447Z,75.50
2019-01-21T18:15:13.492Z,75.40
2019-01-21T18:17:41.988Z,75.50
2019-01-21T18:20:13.658Z,75.60
2019-01-21T18:22:42.084Z,75.70
2019-01-21T18:25:11.466Z,75.80
2019-01-21T18:27:40.103Z,75.90
2019-01-21T18:30:11.623Z,76.00
2019-01-21T18:32:40.115Z,76.10
2019-01-21T18:35:10.407Z,76.10
2019-01-21T18:37:38.845Z,76.90
2019-01-21T18:40:13.364Z,76.30
2019-01-21T18:42:41.904Z,75.90
2019-01-21T18:45:13.634Z,77.00
2019-01-21T18:47:42.060Z,78.00
2019-01-21T18:50:11.839Z,78.90
2019-01-21T18:52:40.498Z,78.90
2019-01-21T18:55:09.855Z,79.10
2019-01-21T18:57:38.296Z,79.00
2019-01-21T19:00:09.856Z,79.10
2019-01-21T19:02:38.269Z,79.10
2019-01-21T19:05:07.957Z,79.00
2019-01-21T19:07:36.407Z,78.90
2019-01-21T19:10:08.200Z,79.00
2019-01-21T19:12:36.651Z,78.80
2019-01-21T19:15:11.029Z,78.00
2019-01-21T19:17:40.742Z,77.10
2019-01-21T19:20:12.152Z,77.10
2019-01-21T19:22:40.643Z,77.20
2019-01-21T19:25:10.642Z,76.70
2019-01-21T19:27:39.044Z,76.90
2019-01-21T19:30:13.744Z,77.00
2019-01-21T19:32:42.154Z,77.10
2019-01-21T19:35:13.731Z,77.00
2019-01-21T19:37:42.734Z,77.00
2019-01-21T19:40:17.097Z,77.00
2019-01-21T19:42:45.538Z,77.00
2019-01-21T19:45:14.288Z,76.90
2019-01-21T19:47:42.753Z,76.80
2019-01-21T19:50:16.933Z,76.70
2019-01-21T19:52:46.002Z,76.60
2019-01-21T19:55:17.639Z,76.50
2019-01-21T19:57:46.065Z,76.30
2019-01-21T20:00:17.685Z,76.20
2019-01-21T20:02:46.105Z,76.20
2019-01-21T20:05:14.606Z,76.10
2019-01-21T20:07:43.051Z,76.00
2019-01-21T20:10:14.474Z,76.10
2019-01-21T20:12:42.902Z,76.00
2019-01-21T20:15:16.545Z,75.90
2019-01-21T20:17:45.614Z,75.80
2019-01-21T20:20:22.749Z,75.80
2019-01-21T20:22:57.230Z,75.70
2019-01-21T20:25:21.386Z,75.70
2019-01-21T20:27:49.824Z,75.70
2019-01-21T20:30:20.477Z,75.60
2019-01-21T20:32:48.990Z,75.60
2019-01-21T20:35:17.654Z,75.60
2019-01-21T20:37:46.104Z,75.60
2019-01-21T20:40:26.459Z,75.60
2019-01-21T20:42:54.900Z,75.50
2019-01-21T20:45:23.579Z,75.40
2019-01-21T20:47:51.989Z,75.40
2019-01-21T20:50:26.148Z,75.30
2019-01-21T20:52:54.595Z,75.10
2019-01-21T20:55:23.105Z,75.10
2019-01-21T20:57:51.533Z,75.20
2019-01-21T21:00:25.243Z,75.20
2019-01-21T21:02:54.895Z,75.30
2019-01-21T21:05:23.470Z,75.30
2019-01-21T21:07:51.966Z,75.40
2019-01-21T21:10:20.554Z,76.10
2019-01-21T21:12:49.902Z,75.40
2019-01-21T21:15:20.787Z,75.40
2019-01-21T21:17:49.224Z,75.30
2019-01-21T21:20:17.793Z,75.30
2019-01-21T21:22:46.234Z,75.30
2019-01-21T21:25:20.627Z,75.40
2019-01-21T21:27:49.066Z,75.50
2019-01-21T21:30:22.620Z,75.50
2019-01-21T21:32:51.061Z,75.50
2019-01-21T21:35:20.000Z,75.50
2019-01-21T21:37:48.489Z,75.50
2019-01-21T21:40:19.277Z,75.50
2019-01-21T21:42:47.698Z,75.60
2019-01-21T21:45:20.841Z,75.70
2019-01-21T21:47:49.802Z,75.60
2019-01-21T21:50:24.190Z,75.70
2019-01-21T21:52:52.701Z,75.70
2019-01-21T21:55:21.171Z,75.70
2019-01-21T21:57:49.681Z,75.70
2019-01-21T22:00:23.576Z,75.80
2019-01-21T22:02:52.200Z,75.70
2019-01-21T22:05:21.054Z,75.60
2019-01-21T22:07:49.703Z,75.70
2019-01-21T22:10:23.437Z,75.80
2019-01-21T22:12:52.152Z,75.80
2019-01-21T22:15:22.009Z,75.80
2019-01-21T22:17:50.535Z,75.80
2019-01-21T22:20:23.249Z,75.80
2019-01-21T22:22:51.965Z,75.80
2019-01-21T22:25:20.725Z,75.80
2019-01-21T22:27:49.219Z,75.80
2019-01-21T22:30:22.401Z,75.90
2019-01-21T22:32:50.923Z,75.90
2019-01-21T22:35:19.409Z,75.90
2019-01-21T22:37:48.133Z,76.00
2019-01-21T22:40:18.600Z,75.90
2019-01-21T22:42:47.187Z,75.90
2019-01-21T22:45:16.932Z,75.90
2019-01-21T22:47:45.498Z,76.00
2019-01-21T22:50:15.756Z,76.00
2019-01-21T22:52:44.247Z,76.00
2019-01-21T22:55:14.424Z,76.00
2019-01-21T22:57:42.984Z,76.00
2019-01-21T23:00:30.913Z,76.10
2019-01-21T23:02:59.385Z,76.00
2019-01-21T23:05:27.846Z,75.90
2019-01-21T23:07:56.407Z,76.00
2019-01-21T23:10:24.898Z,76.00
2019-01-21T23:12:53.617Z,76.10
2019-01-21T23:15:22.141Z,76.00
2019-01-21T23:17:50.556Z,75.90
2019-01-21T23:20:19.064Z,76.00
2019-01-21T23:22:49.207Z,76.00
2019-01-21T23:25:18.080Z,76.00
2019-01-21T23:27:46.645Z,75.90
2019-01-21T23:30:20.198Z,75.90
2019-01-21T23:32:48.650Z,76.00
2019-01-21T23:35:18.145Z,76.10
2019-01-21T23:37:46.770Z,76.00
2019-01-21T23:40:15.453Z,76.00
2019-01-21T23:42:43.967Z,76.10
2019-01-21T23:45:13.127Z,76.10
2019-01-21T23:47:41.577Z,76.00
2019-01-21T23:50:14.820Z,76.10
2019-01-21T23:52:43.433Z,76.10
2019-01-21T23:55:12.897Z,76.10
2019-01-21T23:57:41.376Z,76.20
